Meteo Giornale » Osservazioni meteo Italia » Catania-Sigonella

ore: 11:55 - Osservazioni Meteo Catania-Sigonella
Lat. 37° 24' N Lon. 14° 55' E Alt. 22 metri s.l.m.

sereno Europe/Rome

36 °C

Sereno

Temp. 24 Ore

22 °C

39 °C

Ovest

16.7 Km/h

Dew point 7 °C

Umidità 16 %

Visibilità  10 Km

Il sole sorge alle ore 05:58

Il sole tramonta alle ore 20:15

Data e Ora Cielo e Fenomeni T °C DP °C Um. % Pres. hPa Vis. km Vento km/h
Oggi h: 11:55 sereno Sereno 36 7 16 1006 10 O 16.7
Oggi h: 10:55 poco_nuvoloso Poco Nuvoloso 34 13 28 1007 10 O 16.7
Oggi h: 09:55 poco_nuvoloso Poco Nuvoloso 33 13 29 1007 10 O 20.3
Oggi h: 08:55 poco_nuvoloso Poco Nuvoloso 32 13 31 1007 10 O/SO 18.5
Oggi h: 07:55 poco_nuvoloso Poco Nuvoloso 28 15 45 1007 10 SO 11.1
Oggi h: 06:55 sereno Sereno 23 19 78 1006 10 N 3.7
Oggi h: 05:55 sereno Sereno 22 22 100 1006 10 N 5.5
Oggi h: 04:55 sereno Sereno 23 23 100 1006 10 N 3.7
Oggi h: 03:55 poco_nuvoloso Poco Nuvoloso 23 22 94 1007 10 N/NE 7.4
Oggi h: 02:55 poco_nuvoloso Poco Nuvoloso 23 22 94 1007 10 E/SE 9.3
Oggi h: 01:55 sereno Sereno 25 20 73 1007 10 O 9.3
Oggi h: 00:55 sereno Sereno 25 23 88 1008 10 N 3.7
Ieri h: 23:55 sereno Sereno 27 21 69 1008 10 N 5.5
Ieri h: 22:55 sereno Sereno 27 21 69 1008 10 E 7.4
Ieri h: 21:55 poco_nuvoloso Poco Nuvoloso 28 20 61 1008 10 E/NE 9.3
Ieri h: 20:55 poco_nuvoloso Poco Nuvoloso 28 21 65 1008 10 E/SE 11.1
Ieri h: 19:55 poco_nuvoloso Poco Nuvoloso 29 21 62 1007 10 E 16.7
Ieri h: 18:55 poco_nuvoloso Poco Nuvoloso 31 21 55 1007 10 E/NE 16.7
Ieri h: 17:55 sereno Sereno 33 19 43 1006 10 E 22.2
Ieri h: 16:55 sereno Sereno 37 18 32 1008 10 E/NE 16.7
Ieri h: 15:55 sereno Sereno 39 18 29 1008 10 E/NE 20.3
Ieri h: 14:55 sereno Sereno 37 17 30 1008 10 E 22.2
Ieri h: 13:55 poco_nuvoloso Poco Nuvoloso 38 17 29 1010 10 E 16.7
Ieri h: 12:55 nuvoloso Nuvoloso 36 16 30 1010 10 E 9.3